sensor_id;sensor_type;location;lat;lon;timestamp;P1;durP1;ratioP1;P2;durP2;ratioP2
17714;SDS011;8977;50.902;4.314;2023-02-10T00:00:46;32.53;;;22.37;;
17714;SDS011;8977;50.902;4.314;2023-02-10T00:03:13;31.27;;;22.47;;
17714;SDS011;8977;50.902;4.314;2023-02-10T00:05:39;33.27;;;23.80;;
17714;SDS011;8977;50.902;4.314;2023-02-10T00:08:07;34.47;;;24.20;;
17714;SDS011;8977;50.902;4.314;2023-02-10T00:10:35;33.73;;;24.13;;
17714;SDS011;8977;50.902;4.314;2023-02-10T00:13:02;31.70;;;23.07;;
17714;SDS011;8977;50.902;4.314;2023-02-10T00:15:29;34.23;;;24.17;;
17714;SDS011;8977;50.902;4.314;2023-02-10T00:17:56;36.43;;;23.10;;
17714;SDS011;8977;50.902;4.314;2023-02-10T00:20:23;32.70;;;24.47;;
17714;SDS011;8977;50.902;4.314;2023-02-10T00:22:49;31.87;;;24.03;;
17714;SDS011;8977;50.902;4.314;2023-02-10T00:25:18;30.43;;;23.50;;
17714;SDS011;8977;50.902;4.314;2023-02-10T00:27:44;31.87;;;24.80;;
17714;SDS011;8977;50.902;4.314;2023-02-10T00:30:12;31.53;;;24.03;;
17714;SDS011;8977;50.902;4.314;2023-02-10T00:32:39;31.63;;;23.63;;
17714;SDS011;8977;50.902;4.314;2023-02-10T00:35:06;32.70;;;23.80;;
17714;SDS011;8977;50.902;4.314;2023-02-10T00:37:33;33.20;;;24.20;;
17714;SDS011;8977;50.902;4.314;2023-02-10T00:40:00;33.03;;;23.43;;
17714;SDS011;8977;50.902;4.314;2023-02-10T00:42:28;31.37;;;23.63;;
17714;SDS011;8977;50.902;4.314;2023-02-10T00:44:55;33.87;;;24.70;;
17714;SDS011;8977;50.902;4.314;2023-02-10T00:47:22;34.23;;;24.30;;
17714;SDS011;8977;50.902;4.314;2023-02-10T00:49:51;32.83;;;22.57;;
17714;SDS011;8977;50.902;4.314;2023-02-10T00:52:17;35.30;;;24.27;;
17714;SDS011;8977;50.902;4.314;2023-02-10T00:54:44;33.57;;;24.50;;
17714;SDS011;8977;50.902;4.314;2023-02-10T00:57:11;36.87;;;24.90;;
17714;SDS011;8977;50.902;4.314;2023-02-10T00:59:39;37.57;;;26.43;;
17714;SDS011;8977;50.902;4.314;2023-02-10T01:02:06;33.47;;;24.47;;
17714;SDS011;8977;50.902;4.314;2023-02-10T01:04:33;35.83;;;24.97;;
17714;SDS011;8977;50.902;4.314;2023-02-10T01:07:00;34.27;;;24.37;;
17714;SDS011;8977;50.902;4.314;2023-02-10T01:09:27;32.77;;;23.57;;
17714;SDS011;8977;50.902;4.314;2023-02-10T01:11:54;33.10;;;24.90;;
17714;SDS011;8977;50.902;4.314;2023-02-10T01:14:21;33.33;;;24.63;;
17714;SDS011;8977;50.902;4.314;2023-02-10T01:16:49;34.30;;;25.23;;
17714;SDS011;8977;50.902;4.314;2023-02-10T01:19:16;34.43;;;24.53;;
17714;SDS011;8977;50.902;4.314;2023-02-10T01:21:43;35.53;;;24.00;;
17714;SDS011;8977;50.902;4.314;2023-02-10T01:24:10;34.37;;;24.60;;
17714;SDS011;8977;50.902;4.314;2023-02-10T01:26:36;35.30;;;24.70;;
17714;SDS011;8977;50.902;4.314;2023-02-10T01:29:03;36.67;;;25.70;;
17714;SDS011;8977;50.902;4.314;2023-02-10T01:31:30;33.03;;;24.43;;
17714;SDS011;8977;50.902;4.314;2023-02-10T01:33:58;32.27;;;24.00;;
17714;SDS011;8977;50.902;4.314;2023-02-10T01:36:26;36.57;;;24.47;;
17714;SDS011;8977;50.902;4.314;2023-02-10T01:38:53;35.27;;;25.40;;
17714;SDS011;8977;50.902;4.314;2023-02-10T01:41:20;36.83;;;25.20;;
17714;SDS011;8977;50.902;4.314;2023-02-10T01:43:55;39.17;;;24.33;;
17714;SDS011;8977;50.902;4.314;2023-02-10T01:46:25;34.27;;;23.83;;
17714;SDS011;8977;50.902;4.314;2023-02-10T01:48:53;33.83;;;23.80;;
17714;SDS011;8977;50.902;4.314;2023-02-10T01:51:25;37.07;;;24.97;;
17714;SDS011;8977;50.902;4.314;2023-02-10T01:53:59;34.30;;;23.67;;
17714;SDS011;8977;50.902;4.314;2023-02-10T01:56:26;37.77;;;25.17;;
17714;SDS011;8977;50.902;4.314;2023-02-10T01:58:53;35.93;;;25.57;;
17714;SDS011;8977;50.902;4.314;2023-02-10T02:01:20;38.50;;;25.50;;
17714;SDS011;8977;50.902;4.314;2023-02-10T02:03:47;37.87;;;24.13;;
17714;SDS011;8977;50.902;4.314;2023-02-10T02:06:14;37.53;;;25.87;;
17714;SDS011;8977;50.902;4.314;2023-02-10T02:08:42;37.20;;;25.07;;
17714;SDS011;8977;50.902;4.314;2023-02-10T02:11:12;42.50;;;26.20;;
17714;SDS011;8977;50.902;4.314;2023-02-10T02:13:58;41.07;;;27.77;;
17714;SDS011;8977;50.902;4.314;2023-02-10T02:16:37;40.40;;;26.97;;
17714;SDS011;8977;50.902;4.314;2023-02-10T02:19:18;41.67;;;27.53;;
17714;SDS011;8977;50.902;4.314;2023-02-10T02:22:18;44.30;;;26.87;;
17714;SDS011;8977;50.902;4.314;2023-02-10T02:25:09;40.03;;;26.47;;
17714;SDS011;8977;50.902;4.314;2023-02-10T02:28:01;44.23;;;28.13;;
17714;SDS011;8977;50.902;4.314;2023-02-10T02:33:45;42.97;;;26.47;;
17714;SDS011;8977;50.902;4.314;2023-02-10T02:36:18;40.33;;;25.53;;
17714;SDS011;8977;50.902;4.314;2023-02-10T02:38:51;48.83;;;27.53;;
17714;SDS011;8977;50.902;4.314;2023-02-10T02:41:22;41.03;;;26.20;;
17714;SDS011;8977;50.902;4.314;2023-02-10T02:43:49;43.47;;;27.07;;
17714;SDS011;8977;50.902;4.314;2023-02-10T02:46:20;39.23;;;26.67;;
17714;SDS011;8977;50.902;4.314;2023-02-10T02:48:58;41.63;;;26.83;;
17714;SDS011;8977;50.902;4.314;2023-02-10T02:51:31;46.90;;;28.20;;
17714;SDS011;8977;50.902;4.314;2023-02-10T02:54:08;45.50;;;28.33;;
17714;SDS011;8977;50.902;4.314;2023-02-10T02:56:42;41.63;;;26.17;;
17714;SDS011;8977;50.902;4.314;2023-02-10T02:59:14;44.53;;;27.37;;
17714;SDS011;8977;50.902;4.314;2023-02-10T03:01:47;43.10;;;28.10;;
17714;SDS011;8977;50.902;4.314;2023-02-10T03:04:21;45.53;;;27.50;;
17714;SDS011;8977;50.902;4.314;2023-02-10T03:06:49;45.87;;;26.93;;
17714;SDS011;8977;50.902;4.314;2023-02-10T03:09:16;45.20;;;26.90;;
17714;SDS011;8977;50.902;4.314;2023-02-10T03:11:43;40.70;;;26.93;;
17714;SDS011;8977;50.902;4.314;2023-02-10T03:14:10;48.53;;;28.13;;
17714;SDS011;8977;50.902;4.314;2023-02-10T03:16:37;47.80;;;27.20;;
17714;SDS011;8977;50.902;4.314;2023-02-10T03:19:03;46.07;;;27.73;;
17714;SDS011;8977;50.902;4.314;2023-02-10T03:21:32;43.87;;;26.73;;
17714;SDS011;8977;50.902;4.314;2023-02-10T03:23:59;46.37;;;26.37;;
17714;SDS011;8977;50.902;4.314;2023-02-10T03:26:26;46.10;;;27.00;;
17714;SDS011;8977;50.902;4.314;2023-02-10T03:28:53;42.27;;;26.30;;
17714;SDS011;8977;50.902;4.314;2023-02-10T03:31:21;49.90;;;27.40;;
17714;SDS011;8977;50.902;4.314;2023-02-10T03:33:48;44.57;;;26.87;;
17714;SDS011;8977;50.902;4.314;2023-02-10T03:36:15;44.83;;;27.33;;
17714;SDS011;8977;50.902;4.314;2023-02-10T03:38:43;43.53;;;26.67;;
17714;SDS011;8977;50.902;4.314;2023-02-10T03:41:10;53.43;;;29.27;;
17714;SDS011;8977;50.902;4.314;2023-02-10T03:43:38;49.93;;;28.53;;
17714;SDS011;8977;50.902;4.314;2023-02-10T03:46:06;50.87;;;28.50;;
17714;SDS011;8977;50.902;4.314;2023-02-10T03:48:33;47.37;;;28.27;;
17714;SDS011;8977;50.902;4.314;2023-02-10T03:51:00;50.53;;;29.20;;
17714;SDS011;8977;50.902;4.314;2023-02-10T03:53:29;50.43;;;29.07;;
17714;SDS011;8977;50.902;4.314;2023-02-10T03:55:58;50.23;;;29.00;;
17714;SDS011;8977;50.902;4.314;2023-02-10T03:58:25;48.90;;;29.90;;
17714;SDS011;8977;50.902;4.314;2023-02-10T04:00:52;50.20;;;29.13;;
17714;SDS011;8977;50.902;4.314;2023-02-10T04:03:19;51.47;;;30.30;;
17714;SDS011;8977;50.902;4.314;2023-02-10T04:05:46;49.27;;;28.53;;
17714;SDS011;8977;50.902;4.314;2023-02-10T04:08:13;47.47;;;27.87;;
17714;SDS011;8977;50.902;4.314;2023-02-10T04:10:42;53.77;;;28.20;;
17714;SDS011;8977;50.902;4.314;2023-02-10T04:13:10;48.13;;;28.80;;
17714;SDS011;8977;50.902;4.314;2023-02-10T04:15:37;52.93;;;29.47;;
17714;SDS011;8977;50.902;4.314;2023-02-10T04:18:03;53.97;;;29.93;;
17714;SDS011;8977;50.902;4.314;2023-02-10T04:20:30;53.77;;;29.73;;
17714;SDS011;8977;50.902;4.314;2023-02-10T04:22:57;49.07;;;29.33;;
17714;SDS011;8977;50.902;4.314;2023-02-10T04:25:24;51.03;;;30.20;;
17714;SDS011;8977;50.902;4.314;2023-02-10T04:27:51;50.20;;;30.50;;
17714;SDS011;8977;50.902;4.314;2023-02-10T04:30:19;50.97;;;30.73;;
17714;SDS011;8977;50.902;4.314;2023-02-10T04:32:46;50.07;;;29.63;;
17714;SDS011;8977;50.902;4.314;2023-02-10T04:35:13;50.40;;;30.37;;
17714;SDS011;8977;50.902;4.314;2023-02-10T04:37:40;54.33;;;31.40;;
17714;SDS011;8977;50.902;4.314;2023-02-10T04:40:07;49.77;;;29.03;;
17714;SDS011;8977;50.902;4.314;2023-02-10T04:42:34;50.47;;;30.43;;
17714;SDS011;8977;50.902;4.314;2023-02-10T04:45:01;56.37;;;30.77;;
17714;SDS011;8977;50.902;4.314;2023-02-10T04:47:30;53.50;;;31.93;;
17714;SDS011;8977;50.902;4.314;2023-02-10T04:49:57;50.70;;;30.90;;
17714;SDS011;8977;50.902;4.314;2023-02-10T04:52:24;54.50;;;32.67;;
17714;SDS011;8977;50.902;4.314;2023-02-10T04:54:50;51.10;;;31.57;;
17714;SDS011;8977;50.902;4.314;2023-02-10T04:57:17;48.40;;;30.93;;
17714;SDS011;8977;50.902;4.314;2023-02-10T04:59:44;50.00;;;32.67;;
17714;SDS011;8977;50.902;4.314;2023-02-10T05:02:11;53.80;;;32.37;;
17714;SDS011;8977;50.902;4.314;2023-02-10T05:04:39;50.17;;;31.93;;
17714;SDS011;8977;50.902;4.314;2023-02-10T05:07:06;50.13;;;32.10;;
17714;SDS011;8977;50.902;4.314;2023-02-10T05:09:33;53.37;;;31.90;;
17714;SDS011;8977;50.902;4.314;2023-02-10T05:12:00;55.90;;;33.20;;
17714;SDS011;8977;50.902;4.314;2023-02-10T05:14:27;48.60;;;30.87;;
17714;SDS011;8977;50.902;4.314;2023-02-10T05:16:54;51.20;;;32.23;;
17714;SDS011;8977;50.902;4.314;2023-02-10T05:19:21;49.37;;;31.63;;
17714;SDS011;8977;50.902;4.314;2023-02-10T05:21:49;47.40;;;31.13;;
17714;SDS011;8977;50.902;4.314;2023-02-10T05:24:15;49.33;;;31.27;;
17714;SDS011;8977;50.902;4.314;2023-02-10T05:26:42;46.57;;;31.43;;
17714;SDS011;8977;50.902;4.314;2023-02-10T05:29:09;47.20;;;31.27;;
17714;SDS011;8977;50.902;4.314;2023-02-10T05:31:36;48.27;;;31.07;;
17714;SDS011;8977;50.902;4.314;2023-02-10T05:34:03;44.50;;;30.43;;
17714;SDS011;8977;50.902;4.314;2023-02-10T05:36:30;43.47;;;29.77;;
17714;SDS011;8977;50.902;4.314;2023-02-10T05:38:58;46.90;;;30.27;;
17714;SDS011;8977;50.902;4.314;2023-02-10T05:41:42;45.93;;;30.97;;
17714;SDS011;8977;50.902;4.314;2023-02-10T05:44:09;45.70;;;31.13;;
17714;SDS011;8977;50.902;4.314;2023-02-10T05:46:36;42.90;;;29.83;;
17714;SDS011;8977;50.902;4.314;2023-02-10T05:49:03;46.03;;;31.03;;
17714;SDS011;8977;50.902;4.314;2023-02-10T05:51:30;47.97;;;30.80;;
17714;SDS011;8977;50.902;4.314;2023-02-10T05:53:58;44.63;;;31.20;;
17714;SDS011;8977;50.902;4.314;2023-02-10T05:56:25;43.73;;;30.50;;
17714;SDS011;8977;50.902;4.314;2023-02-10T05:58:52;43.23;;;30.57;;
17714;SDS011;8977;50.902;4.314;2023-02-10T06:01:19;46.00;;;31.97;;
17714;SDS011;8977;50.902;4.314;2023-02-10T06:03:45;42.83;;;29.13;;
17714;SDS011;8977;50.902;4.314;2023-02-10T06:06:12;45.13;;;31.10;;
17714;SDS011;8977;50.902;4.314;2023-02-10T06:08:39;46.27;;;31.40;;
17714;SDS011;8977;50.902;4.314;2023-02-10T06:11:08;41.80;;;31.23;;
17714;SDS011;8977;50.902;4.314;2023-02-10T06:13:34;44.47;;;29.90;;
17714;SDS011;8977;50.902;4.314;2023-02-10T06:16:02;44.37;;;29.77;;
17714;SDS011;8977;50.902;4.314;2023-02-10T06:18:29;45.30;;;30.83;;
17714;SDS011;8977;50.902;4.314;2023-02-10T06:20:57;52.27;;;30.77;;
17714;SDS011;8977;50.902;4.314;2023-02-10T06:23:24;46.50;;;31.20;;
17714;SDS011;8977;50.902;4.314;2023-02-10T06:25:51;46.57;;;29.63;;
17714;SDS011;8977;50.902;4.314;2023-02-10T06:28:21;43.00;;;30.00;;
17714;SDS011;8977;50.902;4.314;2023-02-10T06:30:47;42.70;;;31.23;;
17714;SDS011;8977;50.902;4.314;2023-02-10T06:33:14;45.60;;;31.30;;
17714;SDS011;8977;50.902;4.314;2023-02-10T06:35:41;44.50;;;31.07;;
17714;SDS011;8977;50.902;4.314;2023-02-10T06:38:08;46.57;;;31.87;;
17714;SDS011;8977;50.902;4.314;2023-02-10T06:40:35;51.77;;;31.77;;
17714;SDS011;8977;50.902;4.314;2023-02-10T06:43:02;46.27;;;32.37;;
17714;SDS011;8977;50.902;4.314;2023-02-10T06:45:30;47.90;;;32.50;;
17714;SDS011;8977;50.902;4.314;2023-02-10T06:47:59;48.57;;;33.03;;
17714;SDS011;8977;50.902;4.314;2023-02-10T06:50:26;48.53;;;32.73;;
17714;SDS011;8977;50.902;4.314;2023-02-10T06:52:53;47.50;;;32.77;;
17714;SDS011;8977;50.902;4.314;2023-02-10T06:55:20;47.53;;;32.77;;
17714;SDS011;8977;50.902;4.314;2023-02-10T06:57:47;47.40;;;32.33;;
17714;SDS011;8977;50.902;4.314;2023-02-10T07:00:14;46.13;;;32.63;;
17714;SDS011;8977;50.902;4.314;2023-02-10T07:02:43;46.07;;;32.60;;
17714;SDS011;8977;50.902;4.314;2023-02-10T07:05:10;44.33;;;31.17;;
17714;SDS011;8977;50.902;4.314;2023-02-10T07:07:37;45.70;;;33.20;;
17714;SDS011;8977;50.902;4.314;2023-02-10T07:10:05;47.50;;;32.07;;
17714;SDS011;8977;50.902;4.314;2023-02-10T07:12:32;42.43;;;31.40;;
17714;SDS011;8977;50.902;4.314;2023-02-10T07:14:59;47.13;;;32.23;;
17714;SDS011;8977;50.902;4.314;2023-02-10T07:17:26;44.50;;;32.37;;
17714;SDS011;8977;50.902;4.314;2023-02-10T07:19:54;46.03;;;33.13;;
17714;SDS011;8977;50.902;4.314;2023-02-10T07:22:21;44.00;;;31.27;;
17714;SDS011;8977;50.902;4.314;2023-02-10T07:24:48;46.30;;;31.27;;
17714;SDS011;8977;50.902;4.314;2023-02-10T07:27:15;46.47;;;32.53;;
17714;SDS011;8977;50.902;4.314;2023-02-10T07:29:42;43.73;;;32.67;;
17714;SDS011;8977;50.902;4.314;2023-02-10T07:32:08;50.30;;;33.53;;
17714;SDS011;8977;50.902;4.314;2023-02-10T07:34:35;52.63;;;32.50;;
17714;SDS011;8977;50.902;4.314;2023-02-10T07:37:06;45.73;;;33.13;;
17714;SDS011;8977;50.902;4.314;2023-02-10T07:39:34;46.17;;;31.90;;
17714;SDS011;8977;50.902;4.314;2023-02-10T07:42:01;48.90;;;32.90;;
17714;SDS011;8977;50.902;4.314;2023-02-10T07:44:28;44.67;;;31.57;;
17714;SDS011;8977;50.902;4.314;2023-02-10T07:46:55;44.60;;;31.87;;
17714;SDS011;8977;50.902;4.314;2023-02-10T07:49:22;49.03;;;33.33;;
17714;SDS011;8977;50.902;4.314;2023-02-10T07:51:49;48.17;;;32.73;;
17714;SDS011;8977;50.902;4.314;2023-02-10T07:54:17;45.50;;;31.73;;
17714;SDS011;8977;50.902;4.314;2023-02-10T07:56:44;53.43;;;33.97;;
17714;SDS011;8977;50.902;4.314;2023-02-10T07:59:11;48.67;;;33.10;;
17714;SDS011;8977;50.902;4.314;2023-02-10T08:01:40;49.73;;;33.67;;
17714;SDS011;8977;50.902;4.314;2023-02-10T08:04:08;48.63;;;33.30;;
17714;SDS011;8977;50.902;4.314;2023-02-10T08:06:35;52.17;;;34.67;;
17714;SDS011;8977;50.902;4.314;2023-02-10T08:09:02;45.83;;;33.93;;
17714;SDS011;8977;50.902;4.314;2023-02-10T08:11:30;52.43;;;33.37;;
17714;SDS011;8977;50.902;4.314;2023-02-10T08:13:57;50.87;;;33.87;;
17714;SDS011;8977;50.902;4.314;2023-02-10T08:16:24;51.10;;;32.97;;
17714;SDS011;8977;50.902;4.314;2023-02-10T08:18:51;58.10;;;40.65;;
17714;SDS011;8977;50.902;4.314;2023-02-10T08:21:18;53.20;;;36.77;;
17714;SDS011;8977;50.902;4.314;2023-02-10T08:23:45;51.73;;;34.00;;
17714;SDS011;8977;50.902;4.314;2023-02-10T08:26:12;51.00;;;34.97;;
17714;SDS011;8977;50.902;4.314;2023-02-10T08:28:40;51.30;;;33.43;;
17714;SDS011;8977;50.902;4.314;2023-02-10T08:31:07;53.90;;;35.97;;
17714;SDS011;8977;50.902;4.314;2023-02-10T08:33:35;54.20;;;33.90;;
17714;SDS011;8977;50.902;4.314;2023-02-10T08:36:03;57.53;;;36.00;;
17714;SDS011;8977;50.902;4.314;2023-02-10T08:38:31;55.17;;;35.53;;
17714;SDS011;8977;50.902;4.314;2023-02-10T08:40:58;55.47;;;36.00;;
17714;SDS011;8977;50.902;4.314;2023-02-10T08:43:25;59.47;;;36.13;;
17714;SDS011;8977;50.902;4.314;2023-02-10T08:45:56;60.17;;;35.57;;
17714;SDS011;8977;50.902;4.314;2023-02-10T08:48:23;58.23;;;35.47;;
17714;SDS011;8977;50.902;4.314;2023-02-10T08:50:50;64.93;;;36.27;;
17714;SDS011;8977;50.902;4.314;2023-02-10T08:53:18;59.40;;;36.93;;
17714;SDS011;8977;50.902;4.314;2023-02-10T08:55:54;62.37;;;37.23;;
17714;SDS011;8977;50.902;4.314;2023-02-10T08:58:21;58.67;;;37.27;;
17714;SDS011;8977;50.902;4.314;2023-02-10T09:00:48;64.03;;;37.10;;
17714;SDS011;8977;50.902;4.314;2023-02-10T09:03:16;63.00;;;37.40;;
17714;SDS011;8977;50.902;4.314;2023-02-10T09:05:43;58.47;;;37.83;;
17714;SDS011;8977;50.902;4.314;2023-02-10T09:08:11;61.73;;;37.27;;
17714;SDS011;8977;50.902;4.314;2023-02-10T09:10:38;64.70;;;37.93;;
17714;SDS011;8977;50.902;4.314;2023-02-10T09:13:05;58.37;;;35.97;;
17714;SDS011;8977;50.902;4.314;2023-02-10T09:15:33;63.80;;;37.77;;
17714;SDS011;8977;50.902;4.314;2023-02-10T09:18:02;62.50;;;37.63;;
17714;SDS011;8977;50.902;4.314;2023-02-10T09:20:31;62.30;;;35.13;;
17714;SDS011;8977;50.902;4.314;2023-02-10T09:22:58;67.63;;;38.10;;
17714;SDS011;8977;50.902;4.314;2023-02-10T09:25:25;63.67;;;37.63;;
17714;SDS011;8977;50.902;4.314;2023-02-10T09:27:52;65.30;;;37.87;;
17714;SDS011;8977;50.902;4.314;2023-02-10T09:30:19;64.77;;;38.20;;
17714;SDS011;8977;50.902;4.314;2023-02-10T09:32:46;60.67;;;35.53;;
17714;SDS011;8977;50.902;4.314;2023-02-10T09:35:13;59.37;;;35.97;;
17714;SDS011;8977;50.902;4.314;2023-02-10T09:37:41;57.33;;;36.73;;
17714;SDS011;8977;50.902;4.314;2023-02-10T09:40:10;61.67;;;35.13;;
17714;SDS011;8977;50.902;4.314;2023-02-10T09:42:45;56.23;;;35.93;;
17714;SDS011;8977;50.902;4.314;2023-02-10T09:45:22;58.10;;;35.63;;
17714;SDS011;8977;50.902;4.314;2023-02-10T09:47:52;59.70;;;34.97;;
17714;SDS011;8977;50.902;4.314;2023-02-10T09:50:33;57.37;;;35.00;;
17714;SDS011;8977;50.902;4.314;2023-02-10T09:53:10;55.10;;;33.47;;
17714;SDS011;8977;50.902;4.314;2023-02-10T09:55:41;57.20;;;34.50;;
17714;SDS011;8977;50.902;4.314;2023-02-10T09:58:14;56.43;;;35.20;;
17714;SDS011;8977;50.902;4.314;2023-02-10T10:00:45;58.97;;;35.70;;
17714;SDS011;8977;50.902;4.314;2023-02-10T10:03:17;56.47;;;35.10;;
17714;SDS011;8977;50.902;4.314;2023-02-10T10:05:47;61.57;;;36.27;;
17714;SDS011;8977;50.902;4.314;2023-02-10T10:08:24;61.47;;;36.03;;
17714;SDS011;8977;50.902;4.314;2023-02-10T10:10:56;60.30;;;34.23;;
17714;SDS011;8977;50.902;4.314;2023-02-10T10:13:28;62.37;;;35.73;;
17714;SDS011;8977;50.902;4.314;2023-02-10T10:16:12;56.90;;;33.47;;
17714;SDS011;8977;50.902;4.314;2023-02-10T10:18:47;64.70;;;37.87;;
17714;SDS011;8977;50.902;4.314;2023-02-10T10:21:26;60.93;;;35.43;;
17714;SDS011;8977;50.902;4.314;2023-02-10T10:24:03;58.73;;;35.97;;
17714;SDS011;8977;50.902;4.314;2023-02-10T10:26:44;65.83;;;35.73;;
17714;SDS011;8977;50.902;4.314;2023-02-10T10:29:20;65.00;;;36.40;;
17714;SDS011;8977;50.902;4.314;2023-02-10T10:31:53;63.37;;;36.80;;
17714;SDS011;8977;50.902;4.314;2023-02-10T10:34:31;56.07;;;34.50;;
17714;SDS011;8977;50.902;4.314;2023-02-10T10:37:04;63.13;;;34.47;;
17714;SDS011;8977;50.902;4.314;2023-02-10T10:39:40;61.67;;;36.70;;
17714;SDS011;8977;50.902;4.314;2023-02-10T10:42:12;57.83;;;33.90;;
17714;SDS011;8977;50.902;4.314;2023-02-10T10:44:46;58.33;;;34.03;;
17714;SDS011;8977;50.902;4.314;2023-02-10T10:47:15;58.33;;;32.67;;
17714;SDS011;8977;50.902;4.314;2023-02-10T10:49:46;56.43;;;33.60;;
17714;SDS011;8977;50.902;4.314;2023-02-10T10:52:19;60.83;;;33.67;;
17714;SDS011;8977;50.902;4.314;2023-02-10T10:54:55;55.47;;;32.07;;
17714;SDS011;8977;50.902;4.314;2023-02-10T10:57:22;54.93;;;33.03;;
17714;SDS011;8977;50.902;4.314;2023-02-10T10:59:51;56.50;;;32.80;;
17714;SDS011;8977;50.902;4.314;2023-02-10T11:02:21;53.33;;;31.23;;
17714;SDS011;8977;50.902;4.314;2023-02-10T11:04:59;53.20;;;30.83;;
17714;SDS011;8977;50.902;4.314;2023-02-10T11:07:26;54.37;;;31.07;;
17714;SDS011;8977;50.902;4.314;2023-02-10T11:09:58;57.13;;;30.13;;
17714;SDS011;8977;50.902;4.314;2023-02-10T11:12:27;52.03;;;29.43;;
17714;SDS011;8977;50.902;4.314;2023-02-10T11:14:58;53.07;;;30.23;;
17714;SDS011;8977;50.902;4.314;2023-02-10T11:17:29;53.17;;;29.20;;
17714;SDS011;8977;50.902;4.314;2023-02-10T11:20:02;48.00;;;26.03;;
17714;SDS011;8977;50.902;4.314;2023-02-10T11:22:30;47.70;;;26.20;;
17714;SDS011;8977;50.902;4.314;2023-02-10T11:24:59;40.57;;;23.70;;
17714;SDS011;8977;50.902;4.314;2023-02-10T11:27:27;39.83;;;23.40;;
17714;SDS011;8977;50.902;4.314;2023-02-10T11:29:54;44.10;;;23.77;;
17714;SDS011;8977;50.902;4.314;2023-02-10T11:32:23;44.00;;;24.23;;
17714;SDS011;8977;50.902;4.314;2023-02-10T11:34:52;44.13;;;23.40;;
17714;SDS011;8977;50.902;4.314;2023-02-10T11:37:22;46.47;;;23.93;;
17714;SDS011;8977;50.902;4.314;2023-02-10T11:39:52;39.10;;;22.17;;
17714;SDS011;8977;50.902;4.314;2023-02-10T11:42:23;41.47;;;22.50;;
17714;SDS011;8977;50.902;4.314;2023-02-10T11:44:52;39.17;;;21.80;;
17714;SDS011;8977;50.902;4.314;2023-02-10T11:47:20;38.70;;;21.80;;
17714;SDS011;8977;50.902;4.314;2023-02-10T11:49:47;41.10;;;22.23;;
17714;SDS011;8977;50.902;4.314;2023-02-10T11:52:15;38.77;;;21.70;;
17714;SDS011;8977;50.902;4.314;2023-02-10T11:54:44;34.80;;;21.07;;
17714;SDS011;8977;50.902;4.314;2023-02-10T11:57:16;41.43;;;21.50;;
17714;SDS011;8977;50.902;4.314;2023-02-10T12:00:12;40.47;;;21.07;;
17714;SDS011;8977;50.902;4.314;2023-02-10T12:02:57;40.83;;;22.13;;
17714;SDS011;8977;50.902;4.314;2023-02-10T12:05:39;38.40;;;22.47;;
17714;SDS011;8977;50.902;4.314;2023-02-10T12:08:17;41.47;;;21.70;;
17714;SDS011;8977;50.902;4.314;2023-02-10T12:10:49;38.70;;;21.33;;
17714;SDS011;8977;50.902;4.314;2023-02-10T12:13:26;47.13;;;24.50;;
17714;SDS011;8977;50.902;4.314;2023-02-10T12:16:02;44.90;;;22.63;;
17714;SDS011;8977;50.902;4.314;2023-02-10T12:18:49;43.53;;;25.53;;
17714;SDS011;8977;50.902;4.314;2023-02-10T12:21:37;46.07;;;25.47;;
17714;SDS011;8977;50.902;4.314;2023-02-10T12:24:28;48.23;;;23.90;;
17714;SDS011;8977;50.902;4.314;2023-02-10T12:27:03;44.00;;;24.50;;
17714;SDS011;8977;50.902;4.314;2023-02-10T12:29:42;40.67;;;22.90;;
17714;SDS011;8977;50.902;4.314;2023-02-10T12:32:19;42.83;;;22.63;;
17714;SDS011;8977;50.902;4.314;2023-02-10T12:37:48;44.33;;;24.87;;
17714;SDS011;8977;50.902;4.314;2023-02-10T12:40:24;43.17;;;23.87;;
17714;SDS011;8977;50.902;4.314;2023-02-10T12:43:09;44.57;;;24.67;;
17714;SDS011;8977;50.902;4.314;2023-02-10T12:45:51;43.10;;;25.40;;
17714;SDS011;8977;50.902;4.314;2023-02-10T12:48:27;45.00;;;24.27;;
17714;SDS011;8977;50.902;4.314;2023-02-10T12:51:11;41.70;;;23.30;;
17714;SDS011;8977;50.902;4.314;2023-02-10T12:53:49;42.57;;;23.53;;
17714;SDS011;8977;50.902;4.314;2023-02-10T12:56:21;43.33;;;24.13;;
17714;SDS011;8977;50.902;4.314;2023-02-10T12:58:53;46.90;;;24.67;;
17714;SDS011;8977;50.902;4.314;2023-02-10T13:01:26;46.57;;;24.80;;
17714;SDS011;8977;50.902;4.314;2023-02-10T13:03:57;49.93;;;26.80;;
17714;SDS011;8977;50.902;4.314;2023-02-10T13:06:30;53.07;;;27.53;;
17714;SDS011;8977;50.902;4.314;2023-02-10T13:09:02;54.33;;;28.87;;
17714;SDS011;8977;50.902;4.314;2023-02-10T13:11:38;51.37;;;27.37;;
17714;SDS011;8977;50.902;4.314;2023-02-10T13:14:11;50.93;;;27.57;;
17714;SDS011;8977;50.902;4.314;2023-02-10T13:16:46;48.40;;;27.07;;
17714;SDS011;8977;50.902;4.314;2023-02-10T13:19:20;44.57;;;25.40;;
17714;SDS011;8977;50.902;4.314;2023-02-10T13:21:59;48.43;;;27.00;;
17714;SDS011;8977;50.902;4.314;2023-02-10T13:24:34;51.47;;;26.63;;
17714;SDS011;8977;50.902;4.314;2023-02-10T13:27:12;55.17;;;26.53;;
17714;SDS011;8977;50.902;4.314;2023-02-10T13:29:52;54.97;;;26.27;;
17714;SDS011;8977;50.902;4.314;2023-02-10T13:32:34;51.53;;;27.03;;
17714;SDS011;8977;50.902;4.314;2023-02-10T13:35:12;61.15;;;33.53;;
17714;SDS011;8977;50.902;4.314;2023-02-10T13:37:42;56.70;;;30.20;;
17714;SDS011;8977;50.902;4.314;2023-02-10T13:40:13;51.53;;;27.03;;
17714;SDS011;8977;50.902;4.314;2023-02-10T13:42:47;52.43;;;28.03;;
17714;SDS011;8977;50.902;4.314;2023-02-10T13:45:17;53.50;;;27.27;;
17714;SDS011;8977;50.902;4.314;2023-02-10T13:47:49;52.37;;;28.10;;
17714;SDS011;8977;50.902;4.314;2023-02-10T13:50:20;51.60;;;26.53;;
17714;SDS011;8977;50.902;4.314;2023-02-10T13:52:51;51.37;;;25.77;;
17714;SDS011;8977;50.902;4.314;2023-02-10T13:55:24;57.30;;;28.13;;
17714;SDS011;8977;50.902;4.314;2023-02-10T13:58:17;53.20;;;26.03;;
17714;SDS011;8977;50.902;4.314;2023-02-10T14:00:52;50.10;;;26.50;;
17714;SDS011;8977;50.902;4.314;2023-02-10T14:03:22;50.20;;;26.07;;
17714;SDS011;8977;50.902;4.314;2023-02-10T14:05:52;47.33;;;24.87;;
17714;SDS011;8977;50.902;4.314;2023-02-10T14:08:25;47.17;;;25.30;;
17714;SDS011;8977;50.902;4.314;2023-02-10T14:10:58;46.50;;;26.03;;
17714;SDS011;8977;50.902;4.314;2023-02-10T14:13:27;50.27;;;25.73;;
17714;SDS011;8977;50.902;4.314;2023-02-10T14:16:00;44.70;;;25.47;;
17714;SDS011;8977;50.902;4.314;2023-02-10T14:18:30;43.00;;;25.13;;
17714;SDS011;8977;50.902;4.314;2023-02-10T14:21:00;49.60;;;25.90;;
17714;SDS011;8977;50.902;4.314;2023-02-10T14:23:30;51.40;;;26.03;;
17714;SDS011;8977;50.902;4.314;2023-02-10T14:25:59;45.63;;;26.07;;
17714;SDS011;8977;50.902;4.314;2023-02-10T14:28:29;51.77;;;26.03;;
17714;SDS011;8977;50.902;4.314;2023-02-10T14:31:00;47.33;;;25.73;;
17714;SDS011;8977;50.902;4.314;2023-02-10T14:33:31;49.13;;;25.93;;
17714;SDS011;8977;50.902;4.314;2023-02-10T14:36:01;47.90;;;24.83;;
17714;SDS011;8977;50.902;4.314;2023-02-10T14:38:30;47.53;;;25.93;;
17714;SDS011;8977;50.902;4.314;2023-02-10T14:41:00;45.53;;;25.50;;
17714;SDS011;8977;50.902;4.314;2023-02-10T14:43:30;47.20;;;26.60;;
17714;SDS011;8977;50.902;4.314;2023-02-10T14:46:00;42.73;;;24.07;;
17714;SDS011;8977;50.902;4.314;2023-02-10T14:48:27;42.00;;;24.83;;
17714;SDS011;8977;50.902;4.314;2023-02-10T14:50:58;49.73;;;26.20;;
17714;SDS011;8977;50.902;4.314;2023-02-10T14:53:27;44.90;;;25.00;;
17714;SDS011;8977;50.902;4.314;2023-02-10T14:55:54;43.33;;;24.43;;